sensor_id;sensor_type;location;lat;lon;timestamp;P1;durP1;ratioP1;P2;durP2;ratioP2
45792;SDS011;31495;42.740;22.908;2022-07-06T00:00:20;12.20;;;9.77;;
45792;SDS011;31495;42.740;22.908;2022-07-06T00:01:20;12.77;;;9.63;;
45792;SDS011;31495;42.740;22.908;2022-07-06T00:02:20;17.42;;;9.75;;
45792;SDS011;31495;42.740;22.908;2022-07-06T00:03:20;15.75;;;9.88;;
45792;SDS011;31495;42.740;22.908;2022-07-06T00:04:20;16.70;;;9.65;;
45792;SDS011;31495;42.740;22.908;2022-07-06T00:05:19;15.05;;;10.48;;
45792;SDS011;31495;42.740;22.908;2022-07-06T00:06:19;14.20;;;10.10;;
45792;SDS011;31495;42.740;22.908;2022-07-06T00:07:18;13.18;;;10.60;;
45792;SDS011;31495;42.740;22.908;2022-07-06T00:08:19;13.00;;;9.65;;
45792;SDS011;31495;42.740;22.908;2022-07-06T00:09:19;20.27;;;10.77;;
45792;SDS011;31495;42.740;22.908;2022-07-06T00:10:19;12.77;;;9.70;;
45792;SDS011;31495;42.740;22.908;2022-07-06T00:11:18;14.32;;;10.27;;
45792;SDS011;31495;42.740;22.908;2022-07-06T00:12:18;13.43;;;10.32;;
45792;SDS011;31495;42.740;22.908;2022-07-06T00:13:18;11.77;;;9.68;;
45792;SDS011;31495;42.740;22.908;2022-07-06T00:14:17;16.60;;;11.43;;
45792;SDS011;31495;42.740;22.908;2022-07-06T00:15:17;15.45;;;10.43;;
45792;SDS011;31495;42.740;22.908;2022-07-06T00:16:16;16.02;;;10.43;;
45792;SDS011;31495;42.740;22.908;2022-07-06T00:17:16;16.48;;;11.48;;
45792;SDS011;31495;42.740;22.908;2022-07-06T00:18:16;14.38;;;10.30;;
45792;SDS011;31495;42.740;22.908;2022-07-06T00:19:15;15.00;;;11.20;;
45792;SDS011;31495;42.740;22.908;2022-07-06T00:20:15;14.32;;;10.48;;
45792;SDS011;31495;42.740;22.908;2022-07-06T00:21:14;13.23;;;10.55;;
45792;SDS011;31495;42.740;22.908;2022-07-06T00:22:14;17.20;;;10.45;;
45792;SDS011;31495;42.740;22.908;2022-07-06T00:23:13;14.45;;;10.25;;
45792;SDS011;31495;42.740;22.908;2022-07-06T00:24:13;15.65;;;10.40;;
45792;SDS011;31495;42.740;22.908;2022-07-06T00:25:13;23.40;;;11.20;;
45792;SDS011;31495;42.740;22.908;2022-07-06T00:26:12;23.77;;;10.95;;
45792;SDS011;31495;42.740;22.908;2022-07-06T00:27:12;17.05;;;10.90;;
45792;SDS011;31495;42.740;22.908;2022-07-06T00:28:11;13.38;;;10.75;;
45792;SDS011;31495;42.740;22.908;2022-07-06T00:29:11;18.15;;;11.80;;
45792;SDS011;31495;42.740;22.908;2022-07-06T00:30:10;17.70;;;11.38;;
45792;SDS011;31495;42.740;22.908;2022-07-06T00:31:10;16.05;;;11.55;;
45792;SDS011;31495;42.740;22.908;2022-07-06T00:32:10;16.33;;;11.38;;
45792;SDS011;31495;42.740;22.908;2022-07-06T00:33:10;18.58;;;12.40;;
45792;SDS011;31495;42.740;22.908;2022-07-06T00:34:10;15.57;;;11.88;;
45792;SDS011;31495;42.740;22.908;2022-07-06T00:35:09;16.88;;;12.15;;
45792;SDS011;31495;42.740;22.908;2022-07-06T00:36:09;20.15;;;12.30;;
45792;SDS011;31495;42.740;22.908;2022-07-06T00:37:09;16.67;;;11.98;;
45792;SDS011;31495;42.740;22.908;2022-07-06T00:38:08;20.35;;;12.02;;
45792;SDS011;31495;42.740;22.908;2022-07-06T00:39:07;15.13;;;11.10;;
45792;SDS011;31495;42.740;22.908;2022-07-06T00:40:07;16.17;;;11.45;;
45792;SDS011;31495;42.740;22.908;2022-07-06T00:41:07;13.32;;;10.35;;
45792;SDS011;31495;42.740;22.908;2022-07-06T00:42:07;12.35;;;10.82;;
45792;SDS011;31495;42.740;22.908;2022-07-06T00:43:07;18.20;;;9.80;;
45792;SDS011;31495;42.740;22.908;2022-07-06T00:44:07;14.10;;;11.23;;
45792;SDS011;31495;42.740;22.908;2022-07-06T00:45:08;15.65;;;11.10;;
45792;SDS011;31495;42.740;22.908;2022-07-06T00:46:09;11.27;;;9.70;;
45792;SDS011;31495;42.740;22.908;2022-07-06T00:47:08;14.55;;;9.30;;
45792;SDS011;31495;42.740;22.908;2022-07-06T00:48:07;11.65;;;9.00;;
45792;SDS011;31495;42.740;22.908;2022-07-06T00:49:07;13.70;;;9.48;;
45792;SDS011;31495;42.740;22.908;2022-07-06T00:50:27;14.20;;;9.27;;
45792;SDS011;31495;42.740;22.908;2022-07-06T00:51:31;13.25;;;9.40;;
45792;SDS011;31495;42.740;22.908;2022-07-06T00:52:34;13.45;;;9.32;;
45792;SDS011;31495;42.740;22.908;2022-07-06T00:53:34;14.00;;;10.55;;
45792;SDS011;31495;42.740;22.908;2022-07-06T00:54:34;11.40;;;8.82;;
45792;SDS011;31495;42.740;22.908;2022-07-06T00:55:35;18.02;;;10.23;;
45792;SDS011;31495;42.740;22.908;2022-07-06T00:56:39;11.15;;;9.43;;
45792;SDS011;31495;42.740;22.908;2022-07-06T00:57:39;11.40;;;9.32;;
45792;SDS011;31495;42.740;22.908;2022-07-06T00:58:39;13.57;;;8.90;;
45792;SDS011;31495;42.740;22.908;2022-07-06T00:59:38;11.93;;;9.52;;
45792;SDS011;31495;42.740;22.908;2022-07-06T01:00:38;12.55;;;9.65;;
45792;SDS011;31495;42.740;22.908;2022-07-06T01:01:43;14.55;;;10.32;;
45792;SDS011;31495;42.740;22.908;2022-07-06T01:02:43;15.40;;;9.55;;
45792;SDS011;31495;42.740;22.908;2022-07-06T01:03:43;16.13;;;11.07;;
45792;SDS011;31495;42.740;22.908;2022-07-06T01:04:42;17.60;;;9.70;;
45792;SDS011;31495;42.740;22.908;2022-07-06T01:05:42;13.15;;;10.15;;
45792;SDS011;31495;42.740;22.908;2022-07-06T01:06:44;16.30;;;10.45;;
45792;SDS011;31495;42.740;22.908;2022-07-06T01:07:45;11.70;;;9.35;;
45792;SDS011;31495;42.740;22.908;2022-07-06T01:09:46;15.27;;;9.57;;
45792;SDS011;31495;42.740;22.908;2022-07-06T01:10:45;12.43;;;9.68;;
45792;SDS011;31495;42.740;22.908;2022-07-06T01:11:45;13.90;;;10.82;;
45792;SDS011;31495;42.740;22.908;2022-07-06T01:12:45;11.77;;;9.70;;
45792;SDS011;31495;42.740;22.908;2022-07-06T01:13:45;13.85;;;10.30;;
45792;SDS011;31495;42.740;22.908;2022-07-06T01:14:46;14.00;;;9.23;;
45792;SDS011;31495;42.740;22.908;2022-07-06T01:15:46;11.45;;;9.85;;
45792;SDS011;31495;42.740;22.908;2022-07-06T01:16:46;15.15;;;9.70;;
45792;SDS011;31495;42.740;22.908;2022-07-06T01:17:46;14.30;;;9.82;;
45792;SDS011;31495;42.740;22.908;2022-07-06T01:18:47;12.45;;;9.95;;
45792;SDS011;31495;42.740;22.908;2022-07-06T01:19:46;11.95;;;9.98;;
45792;SDS011;31495;42.740;22.908;2022-07-06T01:20:46;14.80;;;10.05;;
45792;SDS011;31495;42.740;22.908;2022-07-06T01:21:45;15.32;;;10.02;;
45792;SDS011;31495;42.740;22.908;2022-07-06T01:22:46;15.45;;;9.98;;
45792;SDS011;31495;42.740;22.908;2022-07-06T01:23:47;17.40;;;10.32;;
45792;SDS011;31495;42.740;22.908;2022-07-06T01:24:47;13.43;;;10.43;;
45792;SDS011;31495;42.740;22.908;2022-07-06T01:25:46;13.27;;;10.07;;
45792;SDS011;31495;42.740;22.908;2022-07-06T01:26:45;15.32;;;10.15;;
45792;SDS011;31495;42.740;22.908;2022-07-06T01:27:45;21.60;;;9.85;;
45792;SDS011;31495;42.740;22.908;2022-07-06T01:28:46;13.40;;;10.27;;
45792;SDS011;31495;42.740;22.908;2022-07-06T01:29:48;13.93;;;9.55;;
45792;SDS011;31495;42.740;22.908;2022-07-06T01:30:48;12.55;;;9.68;;
45792;SDS011;31495;42.740;22.908;2022-07-06T01:31:48;19.55;;;11.32;;
45792;SDS011;31495;42.740;22.908;2022-07-06T01:32:48;13.05;;;9.82;;
45792;SDS011;31495;42.740;22.908;2022-07-06T01:33:50;16.13;;;10.32;;
45792;SDS011;31495;42.740;22.908;2022-07-06T01:34:52;16.80;;;10.43;;
45792;SDS011;31495;42.740;22.908;2022-07-06T01:35:52;14.80;;;10.57;;
45792;SDS011;31495;42.740;22.908;2022-07-06T01:36:51;13.75;;;10.38;;
45792;SDS011;31495;42.740;22.908;2022-07-06T01:37:51;11.02;;;8.98;;
45792;SDS011;31495;42.740;22.908;2022-07-06T01:38:54;13.38;;;9.68;;
45792;SDS011;31495;42.740;22.908;2022-07-06T01:39:59;14.15;;;9.70;;
45792;SDS011;31495;42.740;22.908;2022-07-06T01:41:04;11.30;;;8.73;;
45792;SDS011;31495;42.740;22.908;2022-07-06T01:42:05;9.50;;;7.47;;
45792;SDS011;31495;42.740;22.908;2022-07-06T01:43:04;10.25;;;8.38;;
45792;SDS011;31495;42.740;22.908;2022-07-06T01:44:04;12.60;;;7.97;;
45792;SDS011;31495;42.740;22.908;2022-07-06T01:45:05;12.73;;;8.40;;
45792;SDS011;31495;42.740;22.908;2022-07-06T01:46:05;13.13;;;8.35;;
45792;SDS011;31495;42.740;22.908;2022-07-06T01:47:05;13.23;;;8.05;;
45792;SDS011;31495;42.740;22.908;2022-07-06T01:48:05;11.07;;;7.78;;
45792;SDS011;31495;42.740;22.908;2022-07-06T01:49:05;8.20;;;7.30;;
45792;SDS011;31495;42.740;22.908;2022-07-06T01:50:06;10.52;;;8.00;;
45792;SDS011;31495;42.740;22.908;2022-07-06T01:51:07;9.80;;;8.15;;
45792;SDS011;31495;42.740;22.908;2022-07-06T01:52:07;11.23;;;7.80;;
45792;SDS011;31495;42.740;22.908;2022-07-06T01:53:07;12.73;;;7.63;;
45792;SDS011;31495;42.740;22.908;2022-07-06T01:54:06;10.60;;;7.78;;
45792;SDS011;31495;42.740;22.908;2022-07-06T01:55:05;12.85;;;8.57;;
45792;SDS011;31495;42.740;22.908;2022-07-06T01:56:05;12.63;;;7.65;;
45792;SDS011;31495;42.740;22.908;2022-07-06T01:57:05;10.00;;;7.30;;
45792;SDS011;31495;42.740;22.908;2022-07-06T01:58:05;10.73;;;7.10;;
45792;SDS011;31495;42.740;22.908;2022-07-06T01:59:04;10.15;;;7.32;;
45792;SDS011;31495;42.740;22.908;2022-07-06T02:00:05;9.93;;;7.60;;
45792;SDS011;31495;42.740;22.908;2022-07-06T02:01:11;14.63;;;8.15;;
45792;SDS011;31495;42.740;22.908;2022-07-06T02:02:15;9.80;;;8.13;;
45792;SDS011;31495;42.740;22.908;2022-07-06T02:03:16;10.23;;;7.25;;
45792;SDS011;31495;42.740;22.908;2022-07-06T02:04:15;11.23;;;6.47;;
45792;SDS011;31495;42.740;22.908;2022-07-06T02:05:15;12.63;;;6.88;;
45792;SDS011;31495;42.740;22.908;2022-07-06T02:06:14;11.15;;;7.53;;
45792;SDS011;31495;42.740;22.908;2022-07-06T02:07:14;10.35;;;7.72;;
45792;SDS011;31495;42.740;22.908;2022-07-06T02:08:14;10.30;;;6.90;;
45792;SDS011;31495;42.740;22.908;2022-07-06T02:09:13;14.48;;;6.93;;
45792;SDS011;31495;42.740;22.908;2022-07-06T02:10:13;9.63;;;7.32;;
45792;SDS011;31495;42.740;22.908;2022-07-06T02:11:13;9.65;;;6.57;;
45792;SDS011;31495;42.740;22.908;2022-07-06T02:12:12;8.23;;;6.88;;
45792;SDS011;31495;42.740;22.908;2022-07-06T02:13:11;9.18;;;7.13;;
45792;SDS011;31495;42.740;22.908;2022-07-06T02:14:11;12.02;;;6.97;;
45792;SDS011;31495;42.740;22.908;2022-07-06T02:15:10;7.97;;;7.07;;
45792;SDS011;31495;42.740;22.908;2022-07-06T02:16:10;11.05;;;6.97;;
45792;SDS011;31495;42.740;22.908;2022-07-06T02:17:10;7.65;;;6.43;;
45792;SDS011;31495;42.740;22.908;2022-07-06T02:18:09;10.10;;;6.65;;
45792;SDS011;31495;42.740;22.908;2022-07-06T02:19:09;9.82;;;6.88;;
45792;SDS011;31495;42.740;22.908;2022-07-06T02:20:08;10.15;;;6.38;;
45792;SDS011;31495;42.740;22.908;2022-07-06T02:21:09;12.15;;;6.50;;
45792;SDS011;31495;42.740;22.908;2022-07-06T02:22:08;8.70;;;6.95;;
45792;SDS011;31495;42.740;22.908;2022-07-06T02:23:07;11.90;;;6.45;;
45792;SDS011;31495;42.740;22.908;2022-07-06T02:24:07;10.32;;;7.03;;
45792;SDS011;31495;42.740;22.908;2022-07-06T02:25:07;9.35;;;6.63;;
45792;SDS011;31495;42.740;22.908;2022-07-06T02:26:07;10.30;;;6.90;;
45792;SDS011;31495;42.740;22.908;2022-07-06T02:27:07;10.38;;;6.28;;
45792;SDS011;31495;42.740;22.908;2022-07-06T02:28:06;11.32;;;6.70;;
45792;SDS011;31495;42.740;22.908;2022-07-06T02:29:06;11.63;;;7.15;;
45792;SDS011;31495;42.740;22.908;2022-07-06T02:30:05;8.85;;;6.05;;
45792;SDS011;31495;42.740;22.908;2022-07-06T02:31:05;10.40;;;6.60;;
45792;SDS011;31495;42.740;22.908;2022-07-06T02:32:05;9.07;;;5.93;;
45792;SDS011;31495;42.740;22.908;2022-07-06T02:33:04;16.08;;;5.97;;
45792;SDS011;31495;42.740;22.908;2022-07-06T02:34:04;11.13;;;6.57;;
45792;SDS011;31495;42.740;22.908;2022-07-06T02:35:03;13.20;;;6.15;;
45792;SDS011;31495;42.740;22.908;2022-07-06T02:36:03;9.80;;;6.22;;
45792;SDS011;31495;42.740;22.908;2022-07-06T02:37:02;8.60;;;5.63;;
45792;SDS011;31495;42.740;22.908;2022-07-06T02:38:02;9.98;;;5.85;;
45792;SDS011;31495;42.740;22.908;2022-07-06T02:39:01;9.70;;;5.85;;
45792;SDS011;31495;42.740;22.908;2022-07-06T02:40:01;8.75;;;5.63;;
45792;SDS011;31495;42.740;22.908;2022-07-06T02:41:00;8.85;;;5.65;;
45792;SDS011;31495;42.740;22.908;2022-07-06T02:41:59;8.23;;;6.28;;
45792;SDS011;31495;42.740;22.908;2022-07-06T02:42:59;10.13;;;6.07;;
45792;SDS011;31495;42.740;22.908;2022-07-06T02:43:58;10.38;;;5.65;;
45792;SDS011;31495;42.740;22.908;2022-07-06T02:44:58;6.88;;;5.68;;
45792;SDS011;31495;42.740;22.908;2022-07-06T02:45:57;15.50;;;6.43;;
45792;SDS011;31495;42.740;22.908;2022-07-06T02:46:57;6.88;;;5.80;;
45792;SDS011;31495;42.740;22.908;2022-07-06T02:47:56;8.32;;;6.47;;
45792;SDS011;31495;42.740;22.908;2022-07-06T02:48:56;8.07;;;6.05;;
45792;SDS011;31495;42.740;22.908;2022-07-06T02:49:56;9.13;;;6.15;;
45792;SDS011;31495;42.740;22.908;2022-07-06T02:50:55;9.00;;;5.72;;
45792;SDS011;31495;42.740;22.908;2022-07-06T02:51:55;11.30;;;6.65;;
45792;SDS011;31495;42.740;22.908;2022-07-06T02:52:54;12.43;;;5.95;;
45792;SDS011;31495;42.740;22.908;2022-07-06T02:53:54;8.07;;;6.75;;
45792;SDS011;31495;42.740;22.908;2022-07-06T02:54:53;9.88;;;6.88;;
45792;SDS011;31495;42.740;22.908;2022-07-06T02:55:53;9.70;;;6.78;;
45792;SDS011;31495;42.740;22.908;2022-07-06T02:56:52;10.20;;;6.85;;
45792;SDS011;31495;42.740;22.908;2022-07-06T02:57:52;9.43;;;6.85;;
45792;SDS011;31495;42.740;22.908;2022-07-06T02:58:51;7.65;;;6.47;;
45792;SDS011;31495;42.740;22.908;2022-07-06T02:59:51;8.88;;;6.32;;
45792;SDS011;31495;42.740;22.908;2022-07-06T03:00:50;8.68;;;6.85;;
45792;SDS011;31495;42.740;22.908;2022-07-06T03:01:50;10.85;;;6.90;;
45792;SDS011;31495;42.740;22.908;2022-07-06T03:02:49;11.32;;;7.38;;
45792;SDS011;31495;42.740;22.908;2022-07-06T03:03:48;13.05;;;7.22;;
45792;SDS011;31495;42.740;22.908;2022-07-06T03:04:48;11.40;;;7.05;;
45792;SDS011;31495;42.740;22.908;2022-07-06T03:05:47;9.75;;;7.38;;
45792;SDS011;31495;42.740;22.908;2022-07-06T03:06:48;12.90;;;8.55;;
45792;SDS011;31495;42.740;22.908;2022-07-06T03:07:47;9.63;;;7.25;;
45792;SDS011;31495;42.740;22.908;2022-07-06T03:08:47;9.95;;;6.95;;
45792;SDS011;31495;42.740;22.908;2022-07-06T03:09:50;10.38;;;7.18;;
45792;SDS011;31495;42.740;22.908;2022-07-06T03:10:49;17.02;;;7.43;;
45792;SDS011;31495;42.740;22.908;2022-07-06T03:11:48;9.30;;;6.57;;
45792;SDS011;31495;42.740;22.908;2022-07-06T03:12:48;9.70;;;6.22;;
45792;SDS011;31495;42.740;22.908;2022-07-06T03:13:47;9.43;;;6.45;;
45792;SDS011;31495;42.740;22.908;2022-07-06T03:14:47;11.40;;;7.18;;
45792;SDS011;31495;42.740;22.908;2022-07-06T03:15:46;11.25;;;6.50;;
45792;SDS011;31495;42.740;22.908;2022-07-06T03:16:45;8.60;;;6.78;;
45792;SDS011;31495;42.740;22.908;2022-07-06T03:17:45;8.70;;;7.00;;
45792;SDS011;31495;42.740;22.908;2022-07-06T03:18:44;10.88;;;7.28;;
45792;SDS011;31495;42.740;22.908;2022-07-06T03:19:44;9.40;;;6.57;;
45792;SDS011;31495;42.740;22.908;2022-07-06T03:20:43;8.75;;;6.40;;
45792;SDS011;31495;42.740;22.908;2022-07-06T03:21:42;9.07;;;6.50;;
45792;SDS011;31495;42.740;22.908;2022-07-06T03:22:42;8.93;;;6.40;;
45792;SDS011;31495;42.740;22.908;2022-07-06T03:23:41;11.43;;;5.65;;
45792;SDS011;31495;42.740;22.908;2022-07-06T03:24:41;8.65;;;6.20;;
45792;SDS011;31495;42.740;22.908;2022-07-06T03:25:41;11.00;;;6.47;;
45792;SDS011;31495;42.740;22.908;2022-07-06T03:26:40;12.50;;;6.88;;
45792;SDS011;31495;42.740;22.908;2022-07-06T03:27:39;8.18;;;6.40;;
45792;SDS011;31495;42.740;22.908;2022-07-06T03:28:39;12.15;;;6.00;;
45792;SDS011;31495;42.740;22.908;2022-07-06T03:29:38;11.43;;;6.30;;
45792;SDS011;31495;42.740;22.908;2022-07-06T03:30:38;9.23;;;7.63;;
45792;SDS011;31495;42.740;22.908;2022-07-06T03:31:37;8.93;;;6.80;;
45792;SDS011;31495;42.740;22.908;2022-07-06T03:32:36;11.30;;;6.57;;
45792;SDS011;31495;42.740;22.908;2022-07-06T03:33:36;9.07;;;7.28;;
45792;SDS011;31495;42.740;22.908;2022-07-06T03:34:35;10.32;;;7.38;;
45792;SDS011;31495;42.740;22.908;2022-07-06T03:35:35;8.88;;;6.75;;
45792;SDS011;31495;42.740;22.908;2022-07-06T03:36:34;15.60;;;8.00;;
45792;SDS011;31495;42.740;22.908;2022-07-06T03:37:34;16.25;;;7.90;;
45792;SDS011;31495;42.740;22.908;2022-07-06T03:38:34;10.00;;;7.40;;
45792;SDS011;31495;42.740;22.908;2022-07-06T03:39:35;16.13;;;7.18;;
45792;SDS011;31495;42.740;22.908;2022-07-06T03:40:34;8.32;;;6.13;;
45792;SDS011;31495;42.740;22.908;2022-07-06T03:41:34;15.73;;;7.35;;
45792;SDS011;31495;42.740;22.908;2022-07-06T03:42:33;13.75;;;8.23;;
45792;SDS011;31495;42.740;22.908;2022-07-06T03:43:34;10.80;;;7.10;;
45792;SDS011;31495;42.740;22.908;2022-07-06T03:44:33;10.38;;;7.30;;
45792;SDS011;31495;42.740;22.908;2022-07-06T03:45:33;11.73;;;6.57;;
45792;SDS011;31495;42.740;22.908;2022-07-06T03:46:32;13.70;;;6.90;;
45792;SDS011;31495;42.740;22.908;2022-07-06T03:47:32;13.50;;;7.53;;
45792;SDS011;31495;42.740;22.908;2022-07-06T03:48:31;16.58;;;8.40;;
45792;SDS011;31495;42.740;22.908;2022-07-06T03:49:30;11.50;;;7.22;;
45792;SDS011;31495;42.740;22.908;2022-07-06T03:50:30;12.88;;;7.10;;
45792;SDS011;31495;42.740;22.908;2022-07-06T03:51:30;12.85;;;7.55;;
45792;SDS011;31495;42.740;22.908;2022-07-06T03:52:30;12.75;;;7.50;;
45792;SDS011;31495;42.740;22.908;2022-07-06T03:53:29;16.02;;;8.27;;
45792;SDS011;31495;42.740;22.908;2022-07-06T03:54:30;13.27;;;7.63;;
45792;SDS011;31495;42.740;22.908;2022-07-06T03:55:29;14.50;;;7.68;;
45792;SDS011;31495;42.740;22.908;2022-07-06T03:56:29;16.30;;;7.07;;
45792;SDS011;31495;42.740;22.908;2022-07-06T03:57:29;12.32;;;6.25;;
45792;SDS011;31495;42.740;22.908;2022-07-06T03:58:28;7.85;;;5.70;;
45792;SDS011;31495;42.740;22.908;2022-07-06T03:59:28;10.85;;;6.07;;
45792;SDS011;31495;42.740;22.908;2022-07-06T04:00:27;12.68;;;6.63;;
45792;SDS011;31495;42.740;22.908;2022-07-06T04:01:27;9.98;;;6.10;;
45792;SDS011;31495;42.740;22.908;2022-07-06T04:02:26;6.45;;;5.70;;
45792;SDS011;31495;42.740;22.908;2022-07-06T04:03:26;9.57;;;5.13;;
45792;SDS011;31495;42.740;22.908;2022-07-06T04:04:25;6.05;;;4.25;;
45792;SDS011;31495;42.740;22.908;2022-07-06T04:05:25;9.65;;;5.10;;
45792;SDS011;31495;42.740;22.908;2022-07-06T04:06:24;7.28;;;5.13;;
45792;SDS011;31495;42.740;22.908;2022-07-06T04:07:25;12.20;;;5.45;;
45792;SDS011;31495;42.740;22.908;2022-07-06T04:08:25;10.80;;;5.90;;
45792;SDS011;31495;42.740;22.908;2022-07-06T04:09:24;9.52;;;5.78;;
45792;SDS011;31495;42.740;22.908;2022-07-06T04:10:24;10.07;;;6.10;;
45792;SDS011;31495;42.740;22.908;2022-07-06T04:11:23;11.38;;;5.35;;
45792;SDS011;31495;42.740;22.908;2022-07-06T04:12:22;9.00;;;6.07;;
45792;SDS011;31495;42.740;22.908;2022-07-06T04:13:22;7.47;;;5.10;;
45792;SDS011;31495;42.740;22.908;2022-07-06T04:14:24;12.15;;;6.05;;
45792;SDS011;31495;42.740;22.908;2022-07-06T04:15:24;7.97;;;5.88;;
45792;SDS011;31495;42.740;22.908;2022-07-06T04:16:24;8.20;;;5.63;;
45792;SDS011;31495;42.740;22.908;2022-07-06T04:17:23;12.07;;;5.57;;
45792;SDS011;31495;42.740;22.908;2022-07-06T04:18:41;6.30;;;5.05;;
45792;SDS011;31495;42.740;22.908;2022-07-06T04:19:41;11.20;;;5.85;;
45792;SDS011;31495;42.740;22.908;2022-07-06T04:20:41;7.85;;;5.93;;
45792;SDS011;31495;42.740;22.908;2022-07-06T04:21:40;12.68;;;7.50;;
45792;SDS011;31495;42.740;22.908;2022-07-06T04:22:40;10.85;;;6.28;;
45792;SDS011;31495;42.740;22.908;2022-07-06T04:23:39;9.88;;;6.78;;
45792;SDS011;31495;42.740;22.908;2022-07-06T04:24:38;10.63;;;6.22;;
45792;SDS011;31495;42.740;22.908;2022-07-06T04:25:38;11.55;;;6.00;;
45792;SDS011;31495;42.740;22.908;2022-07-06T04:26:38;10.07;;;5.63;;
45792;SDS011;31495;42.740;22.908;2022-07-06T04:27:37;9.27;;;5.68;;
45792;SDS011;31495;42.740;22.908;2022-07-06T04:28:36;8.02;;;5.28;;
45792;SDS011;31495;42.740;22.908;2022-07-06T04:29:36;8.60;;;4.40;;
45792;SDS011;31495;42.740;22.908;2022-07-06T04:30:36;5.80;;;4.43;;
45792;SDS011;31495;42.740;22.908;2022-07-06T04:31:38;7.22;;;4.97;;
45792;SDS011;31495;42.740;22.908;2022-07-06T04:32:38;8.07;;;4.88;;
45792;SDS011;31495;42.740;22.908;2022-07-06T04:33:37;10.02;;;5.38;;
45792;SDS011;31495;42.740;22.908;2022-07-06T04:34:37;9.45;;;4.55;;
45792;SDS011;31495;42.740;22.908;2022-07-06T04:35:36;6.80;;;5.10;;
45792;SDS011;31495;42.740;22.908;2022-07-06T04:36:36;8.65;;;4.43;;
45792;SDS011;31495;42.740;22.908;2022-07-06T04:37:35;7.75;;;4.90;;
45792;SDS011;31495;42.740;22.908;2022-07-06T04:38:34;7.20;;;4.65;;
45792;SDS011;31495;42.740;22.908;2022-07-06T04:39:34;10.73;;;5.13;;
45792;SDS011;31495;42.740;22.908;2022-07-06T04:40:33;10.13;;;5.70;;
45792;SDS011;31495;42.740;22.908;2022-07-06T04:41:33;7.53;;;5.15;;
45792;SDS011;31495;42.740;22.908;2022-07-06T04:42:33;11.77;;;4.95;;
45792;SDS011;31495;42.740;22.908;2022-07-06T04:43:32;10.02;;;5.65;;
45792;SDS011;31495;42.740;22.908;2022-07-06T04:44:32;9.43;;;5.07;;
45792;SDS011;31495;42.740;22.908;2022-07-06T04:45:32;7.57;;;5.72;;
45792;SDS011;31495;42.740;22.908;2022-07-06T04:46:31;7.85;;;5.70;;
45792;SDS011;31495;42.740;22.908;2022-07-06T04:47:31;6.65;;;5.35;;
45792;SDS011;31495;42.740;22.908;2022-07-06T04:49:38;8.90;;;5.68;;
45792;SDS011;31495;42.740;22.908;2022-07-06T04:50:37;8.50;;;5.93;;
45792;SDS011;31495;42.740;22.908;2022-07-06T04:51:36;10.40;;;5.68;;
45792;SDS011;31495;42.740;22.908;2022-07-06T04:52:36;9.48;;;6.63;;
45792;SDS011;31495;42.740;22.908;2022-07-06T04:53:36;9.48;;;5.82;;
45792;SDS011;31495;42.740;22.908;2022-07-06T04:54:36;7.80;;;5.93;;
45792;SDS011;31495;42.740;22.908;2022-07-06T04:55:35;9.52;;;6.47;;
45792;SDS011;31495;42.740;22.908;2022-07-06T04:56:35;9.00;;;6.20;;
45792;SDS011;31495;42.740;22.908;2022-07-06T04:57:34;13.60;;;6.65;;
45792;SDS011;31495;42.740;22.908;2022-07-06T04:58:34;8.80;;;6.18;;
45792;SDS011;31495;42.740;22.908;2022-07-06T04:59:34;8.30;;;6.43;;
45792;SDS011;31495;42.740;22.908;2022-07-06T05:00:33;7.90;;;6.30;;
45792;SDS011;31495;42.740;22.908;2022-07-06T05:01:33;10.02;;;6.35;;
45792;SDS011;31495;42.740;22.908;2022-07-06T05:02:32;12.10;;;7.07;;
45792;SDS011;31495;42.740;22.908;2022-07-06T05:03:32;11.02;;;5.70;;
45792;SDS011;31495;42.740;22.908;2022-07-06T05:04:34;10.98;;;6.28;;
45792;SDS011;31495;42.740;22.908;2022-07-06T05:05:33;8.05;;;5.82;;
45792;SDS011;31495;42.740;22.908;2022-07-06T05:06:33;9.07;;;6.05;;
45792;SDS011;31495;42.740;22.908;2022-07-06T05:07:32;10.13;;;6.45;;
45792;SDS011;31495;42.740;22.908;2022-07-06T05:08:33;9.30;;;5.75;;
45792;SDS011;31495;42.740;22.908;2022-07-06T05:09:33;12.57;;;6.65;;
45792;SDS011;31495;42.740;22.908;2022-07-06T05:10:32;8.40;;;5.82;;
45792;SDS011;31495;42.740;22.908;2022-07-06T05:11:32;11.93;;;7.80;;
45792;SDS011;31495;42.740;22.908;2022-07-06T05:12:31;10.73;;;6.85;;
45792;SDS011;31495;42.740;22.908;2022-07-06T05:13:31;11.05;;;6.47;;
45792;SDS011;31495;42.740;22.908;2022-07-06T05:14:39;11.38;;;6.78;;
45792;SDS011;31495;42.740;22.908;2022-07-06T05:15:39;8.38;;;6.68;;
45792;SDS011;31495;42.740;22.908;2022-07-06T05:16:39;7.63;;;6.45;;
45792;SDS011;31495;42.740;22.908;2022-07-06T05:17:38;12.98;;;7.22;;
45792;SDS011;31495;42.740;22.908;2022-07-06T05:18:38;11.48;;;7.35;;
45792;SDS011;31495;42.740;22.908;2022-07-06T05:19:37;12.52;;;7.93;;
45792;SDS011;31495;42.740;22.908;2022-07-06T05:20:37;12.73;;;7.20;;
45792;SDS011;31495;42.740;22.908;2022-07-06T05:21:37;11.63;;;6.60;;
45792;SDS011;31495;42.740;22.908;2022-07-06T05:22:37;11.55;;;7.93;;
45792;SDS011;31495;42.740;22.908;2022-07-06T05:23:36;11.50;;;8.05;;
45792;SDS011;31495;42.740;22.908;2022-07-06T05:24:36;11.43;;;8.40;;
45792;SDS011;31495;42.740;22.908;2022-07-06T05:25:28;14.10;;;9.27;;
45792;SDS011;31495;42.740;22.908;2022-07-06T05:26:28;13.55;;;8.82;;
45792;SDS011;31495;42.740;22.908;2022-07-06T05:27:27;14.10;;;8.93;;
45792;SDS011;31495;42.740;22.908;2022-07-06T05:28:36;15.10;;;9.32;;
45792;SDS011;31495;42.740;22.908;2022-07-06T05:29:36;14.38;;;9.98;;
45792;SDS011;31495;42.740;22.908;2022-07-06T05:30:35;14.13;;;9.20;;
45792;SDS011;31495;42.740;22.908;2022-07-06T05:31:35;15.77;;;10.20;;
45792;SDS011;31495;42.740;22.908;2022-07-06T05:32:34;15.52;;;10.85;;
45792;SDS011;31495;42.740;22.908;2022-07-06T05:33:34;15.30;;;11.35;;
45792;SDS011;31495;42.740;22.908;2022-07-06T05:34:34;16.42;;;10.50;;
45792;SDS011;31495;42.740;22.908;2022-07-06T05:35:35;15.45;;;10.63;;
45792;SDS011;31495;42.740;22.908;2022-07-06T05:36:35;14.70;;;12.50;;
45792;SDS011;31495;42.740;22.908;2022-07-06T05:37:36;18.48;;;11.85;;
45792;SDS011;31495;42.740;22.908;2022-07-06T05:38:36;21.02;;;12.95;;
45792;SDS011;31495;42.740;22.908;2022-07-06T05:39:36;18.15;;;13.05;;
45792;SDS011;31495;42.740;22.908;2022-07-06T05:40:35;20.35;;;12.98;;
45792;SDS011;31495;42.740;22.908;2022-07-06T05:41:35;22.25;;;11.52;;
45792;SDS011;31495;42.740;22.908;2022-07-06T05:42:34;17.27;;;11.48;;
45792;SDS011;31495;42.740;22.908;2022-07-06T05:43:36;18.15;;;11.77;;
45792;SDS011;31495;42.740;22.908;2022-07-06T05:44:36;14.50;;;11.38;;
45792;SDS011;31495;42.740;22.908;2022-07-06T05:45:36;17.98;;;11.35;;
45792;SDS011;31495;42.740;22.908;2022-07-06T05:46:35;14.38;;;11.25;;
45792;SDS011;31495;42.740;22.908;2022-07-06T05:47:35;14.77;;;10.43;;
45792;SDS011;31495;42.740;22.908;2022-07-06T05:48:53;12.93;;;10.88;;
45792;SDS011;31495;42.740;22.908;2022-07-06T05:50:11;15.98;;;12.15;;
45792;SDS011;31495;42.740;22.908;2022-07-06T05:51:11;16.02;;;11.38;;
45792;SDS011;31495;42.740;22.908;2022-07-06T05:52:10;16.02;;;12.40;;
45792;SDS011;31495;42.740;22.908;2022-07-06T05:53:10;13.35;;;11.57;;
45792;SDS011;31495;42.740;22.908;2022-07-06T05:54:10;15.82;;;10.85;;